Time;durP1;ratioP1;P1;durP2;ratioP2;P2;SDS_P1;SDS_P2;PMS_P1;PMS_P2;Temp;Humidity;BMP_temperature;BMP_pressure;BME280_temperature;BME280_humidity;BME280_pressure;Samples;Min_cycle;Max_cycle;Signal;HPM_P1;HPM_P2
2022/08/21 00:02:14;;;;;;;8.63;8.07;;;;;;;-141.48;100.00;69781.59;5241463;28;20028;-82
2022/08/21 00:04:45;;;;;;;8.85;7.97;;;;;;;-141.48;100.00;69781.59;5241277;28;20021;-82
2022/08/21 00:07:16;;;;;;;9.35;8.68;;;;;;;-141.48;100.00;69781.59;5242900;28;20090;-82
2022/08/21 00:09:47;;;;;;;10.35;9.30;;;;;;;-141.48;100.00;69781.59;5242481;28;20020;-82
2022/08/21 00:12:18;;;;;;;8.57;7.97;;;;;;;-141.48;100.00;69781.59;5238661;28;20688;-84
2022/08/21 00:14:48;;;;;;;8.23;7.72;;;;;;;-141.48;100.00;69781.59;5234580;28;20394;-84
2022/08/21 00:17:19;;;;;;;13.05;8.35;;;;;;;-141.48;100.00;69781.59;5234297;28;20029;-83
2022/08/21 00:19:49;;;;;;;8.68;7.70;;;;;;;-141.48;100.00;69781.59;5234378;28;20016;-83
2022/08/21 00:22:19;;;;;;;10.30;8.70;;;;;;;-141.48;100.00;69781.59;5235058;28;20053;-83
2022/08/21 00:24:50;;;;;;;7.93;7.32;;;;;;;-141.48;100.00;69781.59;5217118;28;20028;-82
2022/08/21 00:27:20;;;;;;;7.90;7.10;;;;;;;-141.48;100.00;69781.59;5218294;28;20052;-81
2022/08/21 00:29:53;;;;;;;12.75;8.20;;;;;;;-141.48;100.00;69781.59;5239629;28;20017;-83
2022/08/21 00:32:25;;;;;;;8.32;7.65;;;;;;;-141.48;100.00;69781.59;5223148;28;20029;-83
2022/08/21 00:34:56;;;;;;;7.35;6.85;;;;;;;-141.48;100.00;69781.59;5221921;28;20025;-83
2022/08/21 00:37:26;;;;;;;7.78;7.20;;;;;;;-141.48;100.00;69781.59;5224434;28;20025;-85
2022/08/21 00:39:57;;;;;;;7.40;6.90;;;;;;;-141.48;100.00;69781.59;5243014;28;20482;-83
2022/08/21 00:42:28;;;;;;;7.53;7.13;;;;;;;-141.48;100.00;69781.59;5224585;28;20029;-83
2022/08/21 00:44:59;;;;;;;10.05;9.02;;;;;;;-141.48;100.00;69781.59;5242350;28;20032;-84
2022/08/21 00:47:29;;;;;;;7.47;6.88;;;;;;;-141.48;100.00;69781.59;5242539;28;20204;-83
2022/08/21 00:50:00;;;;;;;7.32;6.82;;;;;;;-141.48;100.00;69781.59;5225267;28;20055;-83
2022/08/21 00:52:33;;;;;;;7.68;7.20;;;;;;;-141.48;100.00;69781.59;5246177;28;20033;-85
2022/08/21 00:55:07;;;;;;;8.20;7.50;;;;;;;-141.48;100.00;69781.59;5246952;28;20088;-84
2022/08/21 00:57:44;;;;;;;10.85;6.75;;;;;;;-141.48;100.00;69781.59;5248184;28;20021;-83
2022/08/21 01:00:23;;;;;;;7.80;6.75;;;;;;;-141.48;100.00;69781.59;5246831;28;20028;-83
2022/08/21 01:02:58;;;;;;;8.48;7.07;;;;;;;-141.48;100.00;69781.59;5247004;28;20039;-84
2022/08/21 01:05:29;;;;;;;7.90;7.40;;;;;;;-141.48;100.00;69781.59;5246322;28;20037;-83
2022/08/21 01:08:00;;;;;;;7.85;7.15;;;;;;;-141.48;100.00;69781.59;5246357;28;20463;-85
2022/08/21 01:10:31;;;;;;;9.20;8.32;;;;;;;-141.48;100.00;69781.59;5245736;28;20044;-84
2022/08/21 01:13:02;;;;;;;8.40;7.68;;;;;;;-141.48;100.00;69781.59;5246063;28;20044;-83
2022/08/21 01:15:36;;;;;;;15.82;7.45;;;;;;;-141.48;100.00;69781.59;5244837;28;20025;-82
2022/08/21 01:18:09;;;;;;;8.00;6.82;;;;;;;-141.48;100.00;69781.59;5225795;28;20032;-83
2022/08/21 01:20:44;;;;;;;7.55;6.80;;;;;;;-141.48;100.00;69781.59;5247068;28;20096;-83
2022/08/21 01:23:15;;;;;;;7.40;6.93;;;;;;;-141.48;100.00;69781.59;5247310;28;20119;-84
2022/08/21 01:25:45;;;;;;;8.75;6.38;;;;;;;-141.48;100.00;69781.59;5246272;28;20044;-82
2022/08/21 01:28:16;;;;;;;8.18;7.55;;;;;;;-141.48;100.00;69781.59;5246348;28;20310;-83
2022/08/21 01:30:46;;;;;;;10.85;7.63;;;;;;;-141.48;100.00;69781.59;5245703;28;20021;-83
2022/08/21 01:33:21;;;;;;;9.05;8.15;;;;;;;-141.48;100.00;69781.59;5245674;28;20082;-82
2022/08/21 01:35:52;;;;;;;9.18;8.43;;;;;;;-141.48;100.00;69781.59;5226504;28;20498;-80
2022/08/21 01:38:23;;;;;;;7.82;7.28;;;;;;;-141.48;100.00;69781.59;5244882;28;20020;-81
2022/08/21 01:40:53;;;;;;;10.15;7.78;;;;;;;-141.48;100.00;69781.59;5227421;28;20497;-83
2022/08/21 01:43:24;;;;;;;9.02;8.40;;;;;;;-141.48;100.00;69781.59;5244060;28;20020;-86
2022/08/21 01:45:54;;;;;;;7.57;7.18;;;;;;;-141.48;100.00;69781.59;5242150;28;20021;-82
2022/08/21 01:48:25;;;;;;;9.95;7.80;;;;;;;-141.48;100.00;69781.59;5245261;28;20029;-83
2022/08/21 01:50:57;;;;;;;11.15;8.52;;;;;;;-141.48;100.00;69781.59;5245151;28;20028;-81
2022/08/21 01:53:28;;;;;;;14.15;8.52;;;;;;;-141.48;100.00;69781.59;5227468;28;20422;-85
2022/08/21 01:55:58;;;;;;;8.23;7.50;;;;;;;-141.48;100.00;69781.59;5246024;28;20021;-85
2022/08/21 01:58:29;;;;;;;7.70;7.13;;;;;;;-141.48;100.00;69781.59;5246134;28;20033;-85
2022/08/21 02:01:01;;;;;;;9.20;8.32;;;;;;;-141.48;100.00;69781.59;5246119;28;20032;-85
2022/08/21 02:03:31;;;;;;;9.43;6.65;;;;;;;-141.48;100.00;69781.59;5225822;28;20064;-82
2022/08/21 02:06:07;;;;;;;8.95;8.05;;;;;;;-141.48;100.00;69781.59;5245538;28;20029;-86
2022/08/21 02:08:37;;;;;;;14.68;7.97;;;;;;;-141.48;100.00;69781.59;5245646;28;20029;-82
2022/08/21 02:11:07;;;;;;;10.80;8.07;;;;;;;-141.48;100.00;69781.59;5245888;28;20033;-83
2022/08/21 02:13:38;;;;;;;8.18;7.53;;;;;;;-141.48;100.00;69781.59;5227092;28;20097;-82
2022/08/21 02:16:08;;;;;;;9.80;6.47;;;;;;;-141.48;100.00;69781.59;5243908;28;20267;-81
2022/08/21 02:18:39;;;;;;;8.43;6.75;;;;;;;-141.48;100.00;69781.59;5244624;28;20029;-82
2022/08/21 02:21:09;;;;;;;9.05;8.27;;;;;;;-141.48;100.00;69781.59;5227127;28;20025;-82
2022/08/21 02:23:40;;;;;;;11.13;6.78;;;;;;;-141.48;100.00;69781.59;5245052;28;20108;-85
2022/08/21 02:26:10;;;;;;;7.05;6.53;;;;;;;-141.48;100.00;69781.59;5244237;28;20033;-84
2022/08/21 02:28:42;;;;;;;6.68;6.28;;;;;;;-141.48;100.00;69781.59;5245193;28;20047;-83
2022/08/21 02:31:12;;;;;;;9.57;6.75;;;;;;;-141.48;100.00;69781.59;5228593;28;20017;-85
2022/08/21 02:33:43;;;;;;;6.82;6.25;;;;;;;-141.48;100.00;69781.59;5227774;28;20406;-83
2022/08/21 02:36:13;;;;;;;7.63;5.75;;;;;;;-141.48;100.00;69781.59;5246103;28;20032;-84
2022/08/21 02:38:44;;;;;;;7.43;4.88;;;;;;;-141.48;100.00;69781.59;5246080;28;20364;-82
2022/08/21 02:41:17;;;;;;;6.65;6.15;;;;;;;-141.48;100.00;69781.59;5228532;28;20047;-82
2022/08/21 02:43:48;;;;;;;9.63;7.65;;;;;;;-141.48;100.00;69781.59;5246183;28;20036;-83
2022/08/21 02:46:20;;;;;;;6.68;6.03;;;;;;;-141.48;100.00;69781.59;5246506;28;20039;-83
2022/08/21 02:48:51;;;;;;;6.97;5.65;;;;;;;-141.48;100.00;69781.59;5246260;28;20434;-82
2022/08/21 02:51:22;;;;;;;7.70;5.82;;;;;;;-141.48;100.00;69781.59;5246200;28;20071;-85
2022/08/21 02:53:53;;;;;;;6.15;5.70;;;;;;;-141.48;100.00;69781.59;5277112;22;20040;-69
2022/08/21 02:56:23;;;;;;;7.30;6.57;;;;;;;-141.48;100.00;69781.59;5246203;28;20024;-68
2022/08/21 02:58:53;;;;;;;14.48;6.03;;;;;;;-141.48;100.00;69781.59;5244705;28;20020;-68
2022/08/21 03:01:24;;;;;;;13.43;6.75;;;;;;;-141.48;100.00;69781.59;5244456;28;20044;-70
2022/08/21 03:03:55;;;;;;;5.45;5.03;;;;;;;-141.48;100.00;69781.59;5242789;28;20099;-70
2022/08/21 03:06:25;;;;;;;6.38;5.32;;;;;;;-141.48;100.00;69781.59;5244286;28;20020;-70
2022/08/21 03:08:57;;;;;;;6.00;5.50;;;;;;;-141.48;100.00;69781.59;5244392;28;20028;-70
2022/08/21 03:11:28;;;;;;;5.38;4.97;;;;;;;-141.48;100.00;69781.59;5246324;28;20469;-70
2022/08/21 03:13:58;;;;;;;6.55;5.80;;;;;;;-141.48;100.00;69781.59;5246176;28;20044;-69
2022/08/21 03:16:29;;;;;;;8.70;7.10;;;;;;;-141.48;100.00;69781.59;5246281;28;20069;-72
2022/08/21 03:18:59;;;;;;;6.13;5.65;;;;;;;-141.48;100.00;69781.59;5246471;28;20166;-70
2022/08/21 03:21:30;;;;;;;5.78;5.38;;;;;;;-141.48;100.00;69781.59;5247272;28;20016;-69
2022/08/21 03:24:00;;;;;;;6.00;5.60;;;;;;;-141.48;100.00;69781.59;5229182;28;20029;-68
2022/08/21 03:26:31;;;;;;;6.03;5.60;;;;;;;-141.48;100.00;69781.59;5229992;28;20028;-68
2022/08/21 03:29:02;;;;;;;6.47;5.85;;;;;;;-141.48;100.00;69781.59;5228818;28;20025;-72
2022/08/21 03:31:32;;;;;;;6.45;6.05;;;;;;;-141.48;100.00;69781.59;5246499;28;20104;-69
2022/08/21 03:34:02;;;;;;;8.50;5.88;;;;;;;-141.48;100.00;69781.59;5245182;28;20137;-68
2022/08/21 03:36:33;;;;;;;7.30;6.70;;;;;;;-141.48;100.00;69781.59;5245054;28;20059;-69
2022/08/21 03:39:03;;;;;;;7.22;4.97;;;;;;;-141.48;100.00;69781.59;5245563;28;20062;-68
2022/08/21 03:41:34;;;;;;;7.00;5.45;;;;;;;-141.48;100.00;69781.59;5227834;28;20037;-69
2022/08/21 03:44:04;;;;;;;4.40;4.20;;;;;;;-141.48;100.00;69781.59;5226742;28;20016;-71
2022/08/21 03:46:34;;;;;;;6.50;5.35;;;;;;;-141.48;100.00;69781.59;5227361;28;20054;-69
2022/08/21 03:49:05;;;;;;;6.80;6.22;;;;;;;-141.48;100.00;69781.59;5244495;28;20024;-69
2022/08/21 03:51:36;;;;;;;8.07;6.00;;;;;;;-141.48;100.00;69781.59;5244514;28;20046;-69
2022/08/21 03:54:07;;;;;;;6.68;6.22;;;;;;;-141.48;100.00;69781.59;5226089;28;20021;-71
2022/08/21 03:56:39;;;;;;;7.43;6.72;;;;;;;-141.48;100.00;69781.59;5246580;28;20036;-68
2022/08/21 03:59:10;;;;;;;8.40;5.97;;;;;;;-141.48;100.00;69781.59;5229146;28;20025;-70
2022/08/21 04:01:51;;;;;;;6.93;5.22;;;;;;;-141.48;100.00;69781.59;5245564;28;20078;-68
2022/08/21 04:04:22;;;;;;;6.93;6.22;;;;;;;-141.48;100.00;69781.59;5226184;28;20025;-69
2022/08/21 04:06:54;;;;;;;7.57;5.32;;;;;;;-141.48;100.00;69781.59;5225752;28;20107;-68
2022/08/21 04:09:25;;;;;;;6.22;5.72;;;;;;;-141.48;100.00;69781.59;5226733;28;20029;-70
2022/08/21 04:11:56;;;;;;;7.65;7.03;;;;;;;-141.48;100.00;69781.59;5245748;28;20048;-69
2022/08/21 04:14:27;;;;;;;6.15;5.65;;;;;;;-141.48;100.00;69781.59;5226438;28;20464;-69
2022/08/21 04:16:57;;;;;;;4.38;4.07;;;;;;;-141.48;100.00;69781.59;5245491;28;20143;-69
2022/08/21 04:19:28;;;;;;;6.97;6.43;;;;;;;-141.48;100.00;69781.59;5226380;28;20036;-68
2022/08/21 04:21:58;;;;;;;6.13;5.70;;;;;;;-141.48;100.00;69781.59;5242864;28;20457;-69
2022/08/21 04:24:28;;;;;;;7.88;5.15;;;;;;;-141.48;100.00;69781.59;5241504;28;20017;-70
2022/08/21 04:26:59;;;;;;;6.65;6.05;;;;;;;-141.48;100.00;69781.59;5223715;28;20082;-70
2022/08/21 04:29:29;;;;;;;5.40;4.75;;;;;;;-141.48;100.00;69781.59;5242211;28;20021;-70
2022/08/21 04:32:00;;;;;;;7.97;6.03;;;;;;;-141.48;100.00;69781.59;5244512;28;20453;-69
2022/08/21 04:34:30;;;;;;;6.82;6.10;;;;;;;-141.48;100.00;69781.59;5262721;28;20150;-69
2022/08/21 04:37:01;;;;;;;8.95;5.55;;;;;;;-141.48;100.00;69781.59;5263433;28;20032;-69
2022/08/21 04:39:31;;;;;;;6.35;5.22;;;;;;;-141.48;100.00;69781.59;5263782;28;20035;-70
2022/08/21 04:42:01;;;;;;;8.35;5.63;;;;;;;-141.48;100.00;69781.59;5263668;28;20032;-71
2022/08/21 04:44:32;;;;;;;5.00;4.63;;;;;;;-141.48;100.00;69781.59;5262614;28;20435;-71
2022/08/21 04:47:03;;;;;;;6.68;6.20;;;;;;;-141.48;100.00;69781.59;5263378;28;20455;-70
2022/08/21 04:49:33;;;;;;;6.68;6.18;;;;;;;-141.48;100.00;69781.59;5249156;28;20100;-70
2022/08/21 04:52:05;;;;;;;5.50;4.85;;;;;;;-141.48;100.00;69781.59;5254274;28;20442;-70
2022/08/21 04:54:36;;;;;;;7.03;6.22;;;;;;;-141.48;100.00;69781.59;5261906;28;20019;-70
2022/08/21 04:57:11;;;;;;;6.55;5.85;;;;;;;-141.48;100.00;69781.59;5262454;28;20036;-70
2022/08/21 04:59:46;;;;;;;6.57;5.97;;;;;;;-141.48;100.00;69781.59;5262739;28;20368;-69
2022/08/21 05:02:17;;;;;;;5.97;4.95;;;;;;;-141.48;100.00;69781.59;5262951;28;20444;-70
2022/08/21 05:04:53;;;;;;;5.55;5.15;;;;;;;-141.48;100.00;69781.59;5262182;28;20088;-69
2022/08/21 05:07:29;;;;;;;4.88;4.47;;;;;;;-141.48;100.00;69781.59;5263163;28;20577;-69
2022/08/21 05:10:00;;;;;;;10.95;5.70;;;;;;;-141.48;100.00;69781.59;5262946;28;20024;-70
2022/08/21 05:12:31;;;;;;;5.85;5.05;;;;;;;-141.48;100.00;69781.59;5263074;28;20030;-70
2022/08/21 05:15:03;;;;;;;6.20;5.75;;;;;;;-141.48;100.00;69781.59;5263335;28;20402;-69
2022/08/21 05:17:33;;;;;;;6.07;5.30;;;;;;;-141.48;100.00;69781.59;5263302;28;20024;-69
2022/08/21 05:20:04;;;;;;;12.52;5.10;;;;;;;-141.48;100.00;69781.59;5262714;28;20452;-68
2022/08/21 05:22:35;;;;;;;8.88;6.43;;;;;;;-141.48;100.00;69781.59;5263380;28;20137;-69
2022/08/21 05:25:07;;;;;;;6.45;5.28;;;;;;;-141.48;100.00;69781.59;5262514;28;20290;-69
2022/08/21 05:27:38;;;;;;;7.60;6.20;;;;;;;-141.48;100.00;69781.59;5262952;28;20093;-68
2022/08/21 05:30:10;;;;;;;10.02;9.15;;;;;;;-141.48;100.00;69781.59;5244586;28;20019;-69
2022/08/21 05:32:40;;;;;;;9.25;6.30;;;;;;;-141.48;100.00;69781.59;5259258;28;20032;-69
2022/08/21 05:35:11;;;;;;;5.38;4.97;;;;;;;-141.48;100.00;69781.59;5243662;28;20361;-70
2022/08/21 05:37:41;;;;;;;8.48;5.18;;;;;;;-141.48;100.00;69781.59;5263972;28;20032;-69
2022/08/21 05:40:11;;;;;;;10.23;7.78;;;;;;;-141.48;100.00;69781.59;5265951;28;20369;-69
2022/08/21 05:42:42;;;;;;;5.40;4.93;;;;;;;-141.48;100.00;69781.59;5248328;28;20032;-69
2022/08/21 05:45:12;;;;;;;6.82;6.20;;;;;;;-141.48;100.00;69781.59;5265758;28;20452;-70
2022/08/21 05:47:43;;;;;;;5.95;5.50;;;;;;;-141.48;100.00;69781.59;5266681;28;20444;-70
2022/08/21 05:50:13;;;;;;;5.55;4.97;;;;;;;-141.48;100.00;69781.59;5266758;28;20064;-70
2022/08/21 05:52:44;;;;;;;6.43;4.90;;;;;;;-141.48;100.00;69781.59;5244852;28;20043;-70
2022/08/21 05:55:14;;;;;;;7.07;5.28;;;;;;;-141.48;100.00;69781.59;5244766;28;20036;-70
2022/08/21 05:57:45;;;;;;;6.40;5.80;;;;;;;-141.48;100.00;69781.59;5245420;28;20016;-70
2022/08/21 06:00:16;;;;;;;8.07;5.28;;;;;;;-141.48;100.00;69781.59;5227348;28;20029;-70
2022/08/21 06:02:46;;;;;;;4.97;4.57;;;;;;;-141.48;100.00;69781.59;5245341;28;20024;-69
2022/08/21 06:05:18;;;;;;;4.47;4.15;;;;;;;-141.48;100.00;69781.59;5244702;28;20491;-70
2022/08/21 06:07:48;;;;;;;4.90;4.35;;;;;;;-141.48;100.00;69781.59;5245649;28;20069;-69
2022/08/21 06:10:19;;;;;;;15.68;6.68;;;;;;;-141.48;100.00;69781.59;5227342;28;20404;-70
2022/08/21 06:12:54;;;;;;;9.55;5.88;;;;;;;-141.48;100.00;69781.59;5245786;28;20016;-71
2022/08/21 06:15:24;;;;;;;7.03;5.10;;;;;;;-141.48;100.00;69781.59;5226269;28;20021;-68
2022/08/21 06:17:55;;;;;;;6.78;5.22;;;;;;;-141.48;100.00;69781.59;5244995;28;20033;-70
2022/08/21 06:20:25;;;;;;;5.55;5.20;;;;;;;-141.48;100.00;69781.59;5245404;28;20028;-71
2022/08/21 06:22:56;;;;;;;5.78;5.35;;;;;;;-141.48;100.00;69781.59;5245059;28;20025;-69
2022/08/21 06:25:27;;;;;;;7.20;5.72;;;;;;;-141.48;100.00;69781.59;5225762;28;20217;-69
2022/08/21 06:28:06;;;;;;;5.22;4.85;;;;;;;-141.48;100.00;69781.59;5245005;28;20028;-70
2022/08/21 06:30:37;;;;;;;6.90;6.05;;;;;;;-141.48;100.00;69781.59;5244943;28;20052;-70
2022/08/21 06:33:08;;;;;;;9.98;5.10;;;;;;;-141.48;100.00;69781.59;5227016;28;20035;-71
2022/08/21 06:35:38;;;;;;;6.47;4.78;;;;;;;-141.48;100.00;69781.59;5244934;28;20396;-69
2022/08/21 06:38:08;;;;;;;6.47;4.88;;;;;;;-141.48;100.00;69781.59;5227024;28;20085;-70
2022/08/21 06:40:39;;;;;;;12.25;4.25;;;;;;;-141.48;100.00;69781.59;5244736;28;20107;-69
2022/08/21 06:43:16;;;;;;;8.80;4.60;;;;;;;-141.48;100.00;69781.59;5244727;28;20751;-70
2022/08/21 06:45:46;;;;;;;7.88;3.72;;;;;;;-141.48;100.00;69781.59;5244572;28;20021;-70
2022/08/21 06:48:16;;;;;;;5.40;4.93;;;;;;;-141.48;100.00;69781.59;5245016;28;20038;-72
2022/08/21 06:50:47;;;;;;;3.97;3.75;;;;;;;-141.48;100.00;69781.59;5244333;28;20031;-69
2022/08/21 06:53:20;;;;;;;13.60;4.93;;;;;;;-141.48;100.00;69781.59;5244427;28;20082;-68
2022/08/21 06:55:50;;;;;;;6.90;4.70;;;;;;;-141.48;100.00;69781.59;5225835;28;20078;-68
2022/08/21 06:58:21;;;;;;;10.05;5.05;;;;;;;-141.48;100.00;69781.59;5245212;28;20473;-69
2022/08/21 07:00:51;;;;;;;5.65;5.10;;;;;;;-141.48;100.00;69781.59;5245825;28;20112;-70
2022/08/21 07:03:32;;;;;;;6.55;4.28;;;;;;;-141.48;100.00;69781.59;5243536;28;20036;-70
2022/08/21 07:06:04;;;;;;;10.48;6.38;;;;;;;-141.48;100.00;69781.59;5242018;28;20043;-70
2022/08/21 07:08:35;;;;;;;12.30;5.45;;;;;;;-141.48;100.00;69781.59;5244836;28;20538;-68
2022/08/21 07:11:14;;;;;;;7.38;5.55;;;;;;;-141.48;100.00;69781.59;5244573;28;20041;-70
2022/08/21 07:13:45;;;;;;;7.35;3.97;;;;;;;-141.48;100.00;69781.59;5244170;28;20029;-70
2022/08/21 07:16:15;;;;;;;4.40;4.03;;;;;;;-141.48;100.00;69781.59;5245610;28;20028;-69
2022/08/21 07:18:46;;;;;;;5.30;3.53;;;;;;;-141.48;100.00;69781.59;5227016;28;20021;-69
2022/08/21 07:21:16;;;;;;;6.88;3.75;;;;;;;-141.48;100.00;69781.59;5244385;28;20031;-70
2022/08/21 07:23:49;;;;;;;5.88;5.25;;;;;;;-141.48;100.00;69781.59;5225358;28;20029;-69
2022/08/21 07:26:22;;;;;;;10.57;5.13;;;;;;;-141.48;100.00;69781.59;5244039;28;20085;-70
2022/08/21 07:28:53;;;;;;;4.50;4.15;;;;;;;-141.48;100.00;69781.59;5243554;28;20025;-67
2022/08/21 07:31:25;;;;;;;5.57;3.67;;;;;;;-141.48;100.00;69781.59;5243784;28;20202;-69
2022/08/21 07:33:56;;;;;;;3.88;3.60;;;;;;;-141.48;100.00;69781.59;5242908;28;20504;-68
2022/08/21 07:36:26;;;;;;;5.10;4.00;;;;;;;-141.48;100.00;69781.59;5243782;28;20026;-68
2022/08/21 07:38:57;;;;;;;4.10;3.75;;;;;;;-141.48;100.00;69781.59;5243258;28;20141;-68
2022/08/21 07:41:29;;;;;;;7.53;3.88;;;;;;;-141.48;100.00;69781.59;5225176;28;20341;-68
2022/08/21 07:43:59;;;;;;;14.02;3.88;;;;;;;-141.48;100.00;69781.59;5243159;28;20411;-68
2022/08/21 07:46:30;;;;;;;15.85;5.30;;;;;;;-141.48;100.00;69781.59;5243625;28;20074;-68
2022/08/21 07:49:00;;;;;;;4.57;2.55;;;;;;;-141.48;100.00;69781.59;5243396;28;20024;-68
2022/08/21 07:51:33;;;;;;;4.75;3.92;;;;;;;-141.48;100.00;69781.59;5243271;28;20017;-68
2022/08/21 07:54:03;;;;;;;15.02;5.88;;;;;;;-141.48;100.00;69781.59;5242409;28;20040;-68
2022/08/21 07:56:34;;;;;;;3.72;2.97;;;;;;;-141.48;100.00;69781.59;5226022;28;20051;-68
2022/08/21 07:59:04;;;;;;;2.88;2.67;;;;;;;-141.48;100.00;69781.59;5243790;28;20078;-69
2022/08/21 08:01:35;;;;;;;3.70;3.40;;;;;;;-141.48;100.00;69781.59;5242486;28;20032;-67
2022/08/21 08:04:05;;;;;;;4.68;4.38;;;;;;;-141.48;100.00;69781.59;5240776;28;20017;-68
2022/08/21 08:06:36;;;;;;;2.67;2.42;;;;;;;-141.48;100.00;69781.59;5224880;28;20060;-67
2022/08/21 08:09:06;;;;;;;6.05;3.72;;;;;;;-141.48;100.00;69781.59;5244715;28;20464;-67
2022/08/21 08:11:40;;;;;;;6.30;2.80;;;;;;;-141.48;100.00;69781.59;5244074;28;20024;-66
2022/08/21 08:14:11;;;;;;;4.75;2.80;;;;;;;-141.48;100.00;69781.59;5225596;28;20021;-67
2022/08/21 08:16:41;;;;;;;7.68;3.22;;;;;;;-141.48;100.00;69781.59;5243410;28;20043;-68
2022/08/21 08:19:12;;;;;;;3.80;3.13;;;;;;;-141.48;100.00;69781.59;5243348;28;20365;-68
2022/08/21 08:21:42;;;;;;;8.23;5.13;;;;;;;-141.48;100.00;69781.59;5243092;28;20124;-67
2022/08/21 08:24:13;;;;;;;4.15;3.85;;;;;;;-141.48;100.00;69781.59;5242511;28;20028;-68
2022/08/21 08:26:43;;;;;;;3.78;3.45;;;;;;;-141.48;100.00;69781.59;5222702;28;20024;-67
2022/08/21 08:29:14;;;;;;;5.38;2.53;;;;;;;-141.48;100.00;69781.59;5242792;28;20043;-67
2022/08/21 08:31:44;;;;;;;5.47;3.83;;;;;;;-141.48;100.00;69781.59;5224695;28;20123;-68
2022/08/21 08:34:15;;;;;;;3.08;2.53;;;;;;;-141.48;100.00;69781.59;5241877;28;20024;-67
2022/08/21 08:36:45;;;;;;;3.45;3.17;;;;;;;-141.48;100.00;69781.59;5243598;28;20162;-68
2022/08/21 08:39:16;;;;;;;3.30;2.88;;;;;;;-141.48;100.00;69781.59;5242725;28;20066;-66
2022/08/21 08:41:50;;;;;;;5.22;3.30;;;;;;;-141.48;100.00;69781.59;5242235;28;20025;-66
2022/08/21 08:44:21;;;;;;;7.22;2.60;;;;;;;-141.48;100.00;69781.59;5242523;28;20391;-66
2022/08/21 08:46:52;;;;;;;2.08;1.90;;;;;;;-141.48;100.00;69781.59;5224746;28;20032;-66
2022/08/21 08:49:30;;;;;;;3.42;2.88;;;;;;;-141.48;100.00;69781.59;5224736;28;20408;-66
2022/08/21 08:54:58;;;;;;;3.35;3.05;;;;;;;-141.48;100.00;69781.59;5282952;22;20048;-81
2022/08/21 08:57:30;;;;;;;8.43;2.97;;;;;;;-141.48;100.00;69781.59;5236792;28;20032;-81
2022/08/21 09:00:06;;;;;;;4.25;2.30;;;;;;;-141.48;100.00;69781.59;5236648;28;20036;-81
2022/08/21 09:02:43;;;;;;;2.92;2.75;;;;;;;-141.48;100.00;69781.59;5235768;28;20024;-82
2022/08/21 09:05:35;;;;;;;5.35;3.72;;;;;;;-141.48;100.00;69781.59;5255229;28;20025;-82
2022/08/21 09:08:33;;;;;;;4.60;2.17;;;;;;;-141.48;100.00;69781.59;5255969;28;20028;-82
2022/08/21 09:11:22;;;;;;;6.13;2.53;;;;;;;-141.48;100.00;69781.59;5255307;28;20040;-82
2022/08/21 09:14:10;;;;;;;6.07;2.10;;;;;;;-141.48;100.00;69781.59;5241230;28;20020;-81
2022/08/21 09:16:59;;;;;;;11.00;3.08;;;;;;;-141.48;100.00;69781.59;5261255;28;20032;-81
2022/08/21 09:19:47;;;;;;;2.55;2.42;;;;;;;-141.48;100.00;69781.59;5242611;28;20078;-81
2022/08/21 09:22:36;;;;;;;2.33;2.22;;;;;;;-141.48;100.00;69781.59;5241160;28;20024;-81
2022/08/21 09:25:12;;;;;;;3.97;3.30;;;;;;;-141.48;100.00;69781.59;5259202;28;20044;-81
2022/08/21 09:27:43;;;;;;;2.25;2.03;;;;;;;-141.48;100.00;69781.59;5260324;28;20024;-81
2022/08/21 09:30:14;;;;;;;2.97;2.78;;;;;;;-141.48;100.00;69781.59;5241069;28;20039;-81
2022/08/21 09:32:45;;;;;;;1.80;1.70;;;;;;;-141.48;100.00;69781.59;5261105;28;20024;-81
2022/08/21 09:35:19;;;;;;;5.68;2.05;;;;;;;-141.48;100.00;69781.59;5259954;28;20029;-81
2022/08/21 09:37:57;;;;;;;2.42;1.75;;;;;;;-141.48;100.00;69781.59;5260060;28;20032;-81
2022/08/21 09:40:39;;;;;;;2.88;2.70;;;;;;;-141.48;100.00;69781.59;5261019;28;20028;-81
2022/08/21 09:43:12;;;;;;;2.17;1.98;;;;;;;-141.48;100.00;69781.59;5244443;28;20020;-81
2022/08/21 09:45:44;;;;;;;5.40;2.05;;;;;;;-141.48;100.00;69781.59;5244851;28;20028;-81
2022/08/21 09:48:20;;;;;;;5.55;2.60;;;;;;;-141.48;100.00;69781.59;5262233;28;20027;-82
2022/08/21 09:50:52;;;;;;;2.78;2.58;;;;;;;-141.48;100.00;69781.59;5263868;28;20031;-81
2022/08/21 09:53:28;;;;;;;2.78;2.63;;;;;;;-141.48;100.00;69781.59;5262852;28;20043;-81
2022/08/21 09:58:52;;;;;;;2.45;2.35;;;;;;;-141.48;100.00;69781.59;5263948;28;20583;-81
2022/08/21 10:01:25;;;;;;;3.25;2.90;;;;;;;-141.48;100.00;69781.59;5247920;28;20020;-80
2022/08/21 10:04:26;;;;;;;3.67;2.80;;;;;;;-141.48;100.00;69781.59;5246786;28;20024;-81
2022/08/21 10:07:09;;;;;;;10.02;2.67;;;;;;;-141.48;100.00;69781.59;5262586;28;20048;-81
2022/08/21 10:09:40;;;;;;;3.33;2.72;;;;;;;-141.48;100.00;69781.59;5246331;28;20371;-81
2022/08/21 10:12:22;;;;;;;4.03;2.58;;;;;;;-141.48;100.00;69781.59;5264830;28;20272;-81
2022/08/21 10:15:02;;;;;;;2.72;2.53;;;;;;;-141.48;100.00;69781.59;5245165;28;20024;-81
2022/08/21 10:17:41;;;;;;;3.38;2.72;;;;;;;-141.48;100.00;69781.59;5260746;28;20115;-82
2022/08/21 10:20:23;;;;;;;5.00;2.80;;;;;;;-141.48;100.00;69781.59;5261192;28;20068;-82
2022/08/21 10:23:05;;;;;;;2.00;1.77;;;;;;;-141.48;100.00;69781.59;5256376;28;20032;-82
2022/08/21 10:25:49;;;;;;;3.05;2.33;;;;;;;-141.48;100.00;69781.59;5252062;28;20024;-82
2022/08/21 10:28:35;;;;;;;4.22;1.90;;;;;;;-141.48;100.00;69781.59;5254853;28;20024;-82
2022/08/21 10:31:27;;;;;;;3.05;2.85;;;;;;;-141.48;100.00;69781.59;5256741;28;20035;-82
2022/08/21 10:34:25;;;;;;;2.28;2.08;;;;;;;-141.48;100.00;69781.59;5255022;28;20031;-84
2022/08/21 10:37:31;;;;;;;4.97;2.97;;;;;;;-141.48;100.00;69781.59;5257128;28;20039;-82
2022/08/21 10:40:01;;;;;;;2.50;2.13;;;;;;;-141.48;100.00;69781.59;5225982;28;20033;-82
2022/08/21 10:43:03;;;;;;;4.30;2.88;;;;;;;-141.48;100.00;69781.59;5260846;28;20047;-82
2022/08/21 10:46:02;;;;;;;14.77;3.67;;;;;;;-141.48;100.00;69781.59;5263720;28;20016;-81
2022/08/21 10:48:44;;;;;;;4.35;3.90;;;;;;;-141.48;100.00;69781.59;5273317;28;20104;-82
2022/08/21 10:51:27;;;;;;;2.63;2.17;;;;;;;-141.48;100.00;69781.59;5263915;28;20032;-83
2022/08/21 10:54:10;;;;;;;3.30;3.00;;;;;;;-141.48;100.00;69781.59;5282355;28;20104;-82
2022/08/21 10:56:41;;;;;;;1.90;1.75;;;;;;;-141.48;100.00;69781.59;5282930;28;20020;-83
2022/08/21 10:59:11;;;;;;;4.75;2.65;;;;;;;-141.48;100.00;69781.59;5281680;28;20024;-83
2022/08/21 11:01:52;;;;;;;4.40;2.00;;;;;;;-141.48;100.00;69781.59;5282664;28;20028;-82
2022/08/21 11:04:51;;;;;;;2.28;2.08;;;;;;;-141.48;100.00;69781.59;5282796;28;20024;-81
2022/08/21 11:07:56;;;;;;;2.72;2.45;;;;;;;-141.48;100.00;69781.59;5265132;28;20020;-82
2022/08/21 11:10:57;;;;;;;3.08;2.63;;;;;;;-141.48;100.00;69781.59;5240764;28;20516;-82
2022/08/21 11:13:32;;;;;;;3.80;2.63;;;;;;;-141.48;100.00;69781.59;5276815;28;20051;-84
2022/08/21 11:16:25;;;;;;;3.10;2.90;;;;;;;-141.48;100.00;69781.59;5262359;28;20032;-83
2022/08/21 11:19:07;;;;;;;6.47;3.20;;;;;;;-141.48;100.00;69781.59;5280014;28;20040;-83
2022/08/21 11:21:50;;;;;;;4.03;2.63;;;;;;;-141.48;100.00;69781.59;5280553;28;20088;-83
2022/08/21 11:24:58;;;;;;;3.58;2.45;;;;;;;-141.48;100.00;69781.59;5279289;28;20016;-83
2022/08/21 11:27:46;;;;;;;5.40;2.10;;;;;;;-141.48;100.00;69781.59;5282972;28;20107;-84
2022/08/21 11:30:17;;;;;;;5.88;3.42;;;;;;;-141.48;100.00;69781.59;5283849;28;20115;-84
2022/08/21 11:33:02;;;;;;;2.83;1.95;;;;;;;-141.48;100.00;69781.59;5282370;28;20443;-84
2022/08/21 11:35:52;;;;;;;3.10;2.80;;;;;;;-141.48;100.00;69781.59;5279986;28;20027;-84
2022/08/21 11:38:34;;;;;;;2.80;2.40;;;;;;;-141.48;100.00;69781.59;5280465;28;20024;-83
2022/08/21 11:41:28;;;;;;;10.75;3.63;;;;;;;-141.48;100.00;69781.59;5279667;28;20030;-83
2022/08/21 11:44:14;;;;;;;3.70;2.90;;;;;;;-141.48;100.00;69781.59;5278673;28;20028;-83
2022/08/21 11:46:58;;;;;;;3.55;3.22;;;;;;;-141.48;100.00;69781.59;5280047;28;20023;-84